Time,TemperatureF,DewpointF,PressureIn,WindDirection,WindDirectionDegrees,WindSpeedMPH,WindSpeedGustMPH,Humidity,HourlyPrecipIn,Conditions,Clouds,dailyrainin,SoftwareType,DateUTC
2013-04-04 00:02:00,33.0,25.0,-100.00,ENE,65,0.0,1.0,70,0.00,,,-99.99,,2013-04-04 05:02:00,
2013-04-04 00:12:00,32.0,23.0,-100.00,ENE,65,0.0,0.0,68,0.00,,,-99.99,,2013-04-04 05:12:00,
2013-04-04 00:23:00,33.0,24.0,-100.00,East,90,0.0,0.0,70,0.00,,,-99.99,,2013-04-04 05:23:00,
2013-04-04 00:32:00,31.0,22.0,-100.00,ENE,70,0.0,1.0,68,0.00,,,-99.99,,2013-04-04 05:32:00,
2013-04-04 00:42:00,31.0,22.0,-100.00,ENE,70,0.0,1.0,68,0.00,,,-99.99,,2013-04-04 05:42:00,
2013-04-04 00:52:00,30.0,23.0,-100.00,SSE,165,1.0,2.0,76,0.00,,,-99.99,,2013-04-04 05:52:00,
2013-04-04 01:02:00,30.0,23.0,-100.00,SSE,165,1.0,2.0,76,0.00,,,-99.99,,2013-04-04 06:02:00,
2013-04-04 01:12:00,29.0,22.0,-100.00,SSW,195,1.0,1.0,74,0.00,,,-99.99,,2013-04-04 06:12:00,
2013-04-04 01:22:00,30.0,23.0,-100.00,SW,225,1.0,2.0,76,0.00,,,-99.99,,2013-04-04 06:22:00,
2013-04-04 01:32:00,29.0,22.0,-100.00,SSW,205,0.0,1.0,77,0.00,,,-99.99,,2013-04-04 06:32:00,
2013-04-04 01:42:00,29.0,22.0,-100.00,SSW,205,0.0,1.0,77,0.00,,,-99.99,,2013-04-04 06:42:00,
2013-04-04 01:52:00,28.0,22.0,-100.00,SSE,165,1.0,2.0,78,0.00,,,-99.99,,2013-04-04 06:52:00,
2013-04-04 02:02:00,28.0,22.0,-100.00,SSE,165,1.0,2.0,78,0.00,,,-99.99,,2013-04-04 07:02:00,
2013-04-04 02:12:00,28.0,22.0,-100.00,SSE,150,1.0,3.0,77,0.00,,,-99.99,,2013-04-04 07:12:00,
2013-04-04 02:22:00,29.0,22.0,-100.00,SSE,155,2.0,2.0,76,0.00,,,-99.99,,2013-04-04 07:22:00,
2013-04-04 02:32:00,28.0,22.0,-100.00,SE,135,2.0,2.0,76,0.00,,,-99.99,,2013-04-04 07:32:00,
2013-04-04 02:42:00,28.0,22.0,-100.00,SE,135,2.0,2.0,76,0.00,,,-99.99,,2013-04-04 07:42:00,
2013-04-04 02:52:00,28.0,22.0,-100.00,SE,135,2.0,2.0,77,0.00,,,-99.99,,2013-04-04 07:52:00,
2013-04-04 03:02:00,28.0,22.0,-100.00,SE,135,2.0,2.0,77,0.00,,,-99.99,,2013-04-04 08:02:00,
2013-04-04 03:12:00,28.0,22.0,-100.00,SE,135,2.0,2.0,76,0.00,,,-99.99,,2013-04-04 08:12:00,
2013-04-04 03:22:00,28.0,23.0,-100.00,SSE,160,2.0,3.0,79,0.00,,,-99.99,,2013-04-04 08:22:00,
2013-04-04 03:32:00,29.0,24.0,-100.00,SE,130,1.0,2.0,84,0.00,,,-99.99,,2013-04-04 08:32:00,
2013-04-04 03:42:00,29.0,24.0,-100.00,SE,130,1.0,2.0,84,0.00,,,-99.99,,2013-04-04 08:42:00,
2013-04-04 03:52:00,29.0,25.0,-100.00,SE,135,0.0,1.0,85,0.00,,,-99.99,,2013-04-04 08:52:00,
2013-04-04 04:02:00,29.0,25.0,-100.00,SE,135,0.0,1.0,85,0.00,,,-99.99,,2013-04-04 09:02:00,
2013-04-04 04:12:00,29.0,25.0,-100.00,SE,130,2.0,2.0,87,0.00,,,-99.99,,2013-04-04 09:12:00,
2013-04-04 04:22:00,29.0,25.0,-100.00,SSE,150,2.0,2.0,87,0.00,,,-99.99,,2013-04-04 09:22:00,
2013-04-04 04:33:00,28.0,26.0,-100.00,East,95,1.0,2.0,88,0.00,,,-99.99,,2013-04-04 09:33:00,
2013-04-04 04:43:00,28.0,26.0,-100.00,East,95,1.0,2.0,88,0.00,,,-99.99,,2013-04-04 09:43:00,
2013-04-04 04:53:00,29.0,26.0,-100.00,SSE,165,2.0,2.0,89,0.00,,,-99.99,,2013-04-04 09:53:00,
2013-04-04 05:04:00,29.0,26.0,-100.00,SSE,165,2.0,2.0,89,0.00,,,-99.99,,2013-04-04 10:04:00,
2013-04-04 05:12:00,29.0,26.0,-100.00,SSE,150,2.0,3.0,89,0.00,,,-99.99,,2013-04-04 10:12:00,
2013-04-04 05:23:00,29.0,26.0,-100.00,East,100,2.0,3.0,89,0.00,,,-99.99,,2013-04-04 10:23:00,
2013-04-04 05:33:00,29.0,26.0,-100.00,ESE,115,2.0,2.0,89,0.00,,,-99.99,,2013-04-04 10:33:00,
2013-04-04 05:42:00,29.0,26.0,-100.00,ESE,115,2.0,2.0,89,0.00,,,-99.99,,2013-04-04 10:42:00,
2013-04-04 05:53:00,29.0,26.0,-100.00,East,85,1.0,2.0,89,0.00,,,-99.99,,2013-04-04 10:53:00,
2013-04-04 06:02:00,29.0,26.0,-100.00,East,85,1.0,2.0,89,0.00,,,-99.99,,2013-04-04 11:02:00,
2013-04-04 06:12:00,29.0,26.0,-100.00,ENE,75,1.0,2.0,90,0.00,,,-99.99,,2013-04-04 11:12:00,
2013-04-04 06:22:00,29.0,27.0,-100.00,ENE,75,0.0,1.0,92,0.00,,,-99.99,,2013-04-04 11:22:00,
2013-04-04 06:32:00,29.0,27.0,-100.00,SE,135,0.0,1.0,92,0.00,,,-99.99,,2013-04-04 11:32:00,
2013-04-04 06:42:00,29.0,27.0,-100.00,SE,135,0.0,1.0,92,0.00,,,-99.99,,2013-04-04 11:42:00,
2013-04-04 06:53:00,29.0,27.0,-100.00,East,80,1.0,1.0,93,0.00,,,-99.99,,2013-04-04 11:53:00,
2013-04-04 07:02:00,29.0,27.0,-100.00,East,80,1.0,1.0,93,0.00,,,-99.99,,2013-04-04 12:02:00,
2013-04-04 07:12:00,28.0,26.0,-100.00,ESE,115,1.0,2.0,93,0.00,,,-99.99,,2013-04-04 12:12:00,
2013-04-04 07:22:00,28.0,26.0,-100.00,SE,125,1.0,1.0,90,0.00,,,-99.99,,2013-04-04 12:22:00,
2013-04-04 07:32:00,28.0,25.0,-100.00,SSE,150,2.0,2.0,88,0.00,,,-99.99,,2013-04-04 12:32:00,
2013-04-04 07:42:00,28.0,25.0,-100.00,SSE,150,2.0,2.0,88,0.00,,,-99.99,,2013-04-04 12:42:00,
2013-04-04 07:52:00,31.0,28.0,-100.00,SSE,165,0.0,1.0,88,0.00,,,-99.99,,2013-04-04 12:52:00,
2013-04-04 08:02:00,31.0,28.0,-100.00,SSE,165,0.0,1.0,88,0.00,,,-99.99,,2013-04-04 13:02:00,
2013-04-04 08:12:00,31.0,28.0,-100.00,SE,145,1.0,1.0,89,0.00,,,-99.99,,2013-04-04 13:12:00,
2013-04-04 08:22:00,32.0,29.0,-100.00,SSE,150,1.0,1.0,87,0.00,,,-99.99,,2013-04-04 13:22:00,
2013-04-04 08:32:00,34.0,30.0,-100.00,ESE,115,1.0,2.0,85,0.00,,,-99.99,,2013-04-04 13:32:00,
2013-04-04 08:42:00,34.0,30.0,-100.00,ESE,115,1.0,2.0,85,0.00,,,-99.99,,2013-04-04 13:42:00,
2013-04-04 08:52:00,37.0,31.0,-100.00,ESE,110,1.0,3.0,78,0.00,,,-99.99,,2013-04-04 13:52:00,
2013-04-04 09:03:00,37.0,31.0,-100.00,ESE,110,1.0,3.0,78,0.00,,,-99.99,,2013-04-04 14:03:00,
2013-04-04 09:12:00,38.0,31.0,-100.00,ESE,115,2.0,4.0,74,0.00,,,-99.99,,2013-04-04 14:12:00,
2013-04-04 09:22:00,41.0,30.0,-100.00,East,100,0.0,2.0,65,0.00,,,-99.99,,2013-04-04 14:22:00,
2013-04-04 09:32:00,44.0,28.0,-100.00,SW,235,4.0,7.0,52,0.00,,,-99.99,,2013-04-04 14:32:00,
2013-04-04 09:42:00,44.0,28.0,-100.00,SW,235,4.0,7.0,52,0.00,,,-99.99,,2013-04-04 14:42:00,
2013-04-04 09:52:00,46.0,26.0,-100.00,WNW,300,4.0,7.0,45,0.00,,,-99.99,,2013-04-04 14:52:00,
2013-04-04 10:02:00,46.0,26.0,-100.00,WNW,300,4.0,7.0,45,0.00,,,-99.99,,2013-04-04 15:02:00,
2013-04-04 10:12:00,47.0,25.0,-100.00,West,280,11.0,13.0,41,0.00,,,-99.99,,2013-04-04 15:12:00,
2013-04-04 10:22:00,47.0,25.0,-100.00,WNW,295,7.0,12.0,40,0.00,,,-99.99,,2013-04-04 15:22:00,
2013-04-04 10:33:00,49.0,22.0,-100.00,WNW,295,9.0,14.0,35,0.00,,,-99.99,,2013-04-04 15:33:00,
2013-04-04 10:43:00,49.0,22.0,-100.00,WNW,295,9.0,14.0,35,0.00,,,-99.99,,2013-04-04 15:43:00,
2013-04-04 10:53:00,49.0,24.0,-100.00,WNW,285,10.0,12.0,36,0.00,,,-99.99,,2013-04-04 15:53:00,
2013-04-04 11:03:00,49.0,24.0,-100.00,WNW,285,10.0,12.0,36,0.00,,,-99.99,,2013-04-04 16:03:00,
2013-04-04 11:12:00,51.0,25.0,-100.00,NW,310,6.0,12.0,36,0.00,,,-99.99,,2013-04-04 16:12:00,
2013-04-04 11:23:00,52.0,26.0,-100.00,NNW,330,4.0,11.0,36,0.00,,,-99.99,,2013-04-04 16:23:00,
2013-04-04 11:32:00,52.0,26.0,-100.00,NNW,335,4.0,14.0,35,0.00,,,-99.99,,2013-04-04 16:32:00,
2013-04-04 11:42:00,52.0,26.0,-100.00,NNW,335,4.0,14.0,35,0.00,,,-99.99,,2013-04-04 16:42:00,
2013-04-04 11:53:00,53.0,27.0,-100.00,NNW,340,6.0,10.0,36,0.00,,,-99.99,,2013-04-04 16:53:00,
2013-04-04 12:03:00,53.0,27.0,-100.00,NNW,340,6.0,10.0,36,0.00,,,-99.99,,2013-04-04 17:03:00,
2013-04-04 12:13:00,53.0,27.0,-100.00,NW,320,7.0,12.0,36,0.00,,,-99.99,,2013-04-04 17:13:00,
2013-04-04 12:22:00,53.0,27.0,-100.00,NNW,340,4.0,12.0,35,0.00,,,-99.99,,2013-04-04 17:22:00,
2013-04-04 12:33:00,54.0,28.0,-100.00,WNW,290,9.0,13.0,36,0.00,,,-99.99,,2013-04-04 17:33:00,
2013-04-04 12:42:00,54.0,28.0,-100.00,WNW,290,9.0,13.0,36,0.00,,,-99.99,,2013-04-04 17:42:00,
2013-04-04 12:52:00,56.0,29.0,-100.00,West,280,6.0,10.0,36,0.00,,,-99.99,,2013-04-04 17:52:00,
2013-04-04 13:02:00,56.0,29.0,-100.00,West,280,6.0,10.0,36,0.00,,,-99.99,,2013-04-04 18:02:00,
2013-04-04 13:12:00,56.0,28.0,-100.00,North,350,7.0,14.0,34,0.00,,,-99.99,,2013-04-04 18:12:00,
2013-04-04 13:22:00,56.0,29.0,-100.00,WNW,285,9.0,12.0,34,0.00,,,-99.99,,2013-04-04 18:22:00,
2013-04-04 13:32:00,57.0,28.0,-100.00,NNW,335,11.0,14.0,32,0.00,,,-99.99,,2013-04-04 18:32:00,
2013-04-04 13:42:00,57.0,28.0,-100.00,NNW,335,11.0,14.0,32,0.00,,,-99.99,,2013-04-04 18:42:00,
2013-04-04 13:52:00,59.0,31.0,-100.00,SSW,205,5.0,11.0,33,0.00,,,-99.99,,2013-04-04 18:52:00,
2013-04-04 14:02:00,59.0,31.0,-100.00,SSW,205,5.0,11.0,33,0.00,,,-99.99,,2013-04-04 19:02:00,
2013-04-04 14:12:00,57.0,29.0,-100.00,WNW,300,7.0,11.0,34,0.00,,,-99.99,,2013-04-04 19:12:00,
2013-04-04 14:22:00,59.0,30.0,-100.00,SSW,205,5.0,12.0,33,0.00,,,-99.99,,2013-04-04 19:22:00,
2013-04-04 14:32:00,59.0,31.0,-100.00,West,275,9.0,12.0,34,0.00,,,-99.99,,2013-04-04 19:32:00,
2013-04-04 14:42:00,59.0,31.0,-100.00,West,275,9.0,12.0,34,0.00,,,-99.99,,2013-04-04 19:42:00,
2013-04-04 14:52:00,60.0,29.0,-100.00,NW,310,6.0,11.0,30,0.00,,,-99.99,,2013-04-04 19:52:00,
2013-04-04 15:03:00,60.0,29.0,-100.00,NW,310,6.0,11.0,30,0.00,,,-99.99,,2013-04-04 20:03:00,
2013-04-04 15:12:00,61.0,31.0,-100.00,NW,305,6.0,11.0,31,0.00,,,-99.99,,2013-04-04 20:12:00,
2013-04-04 15:22:00,61.0,31.0,-100.00,WNW,300,6.0,9.0,31,0.00,,,-99.99,,2013-04-04 20:22:00,
2013-04-04 15:32:00,61.0,31.0,-100.00,WNW,290,7.0,10.0,31,0.00,,,-99.99,,2013-04-04 20:32:00,
2013-04-04 15:42:00,61.0,31.0,-100.00,WNW,290,7.0,10.0,31,0.00,,,-99.99,,2013-04-04 20:42:00,
2013-04-04 15:52:00,62.0,31.0,-100.00,NW,325,4.0,11.0,30,0.00,,,-99.99,,2013-04-04 20:52:00,
2013-04-04 16:02:00,62.0,31.0,-100.00,NW,325,4.0,11.0,30,0.00,,,-99.99,,2013-04-04 21:02:00,
2013-04-04 16:12:00,63.0,31.0,-100.00,WNW,295,4.0,9.0,29,0.00,,,-99.99,,2013-04-04 21:12:00,
2013-04-04 16:22:00,62.0,31.0,-100.00,NW,305,7.0,18.0,30,0.00,,,-99.99,,2013-04-04 21:22:00,
2013-04-04 16:32:00,62.0,30.0,-100.00,WNW,285,9.0,14.0,29,0.00,,,-99.99,,2013-04-04 21:32:00,
2013-04-04 16:43:00,63.0,30.0,-100.00,West,280,10.0,16.0,29,0.00,,,-99.99,,2013-04-04 21:43:00,
2013-04-04 16:52:00,63.0,31.0,-100.00,NW,310,7.0,17.0,29,0.00,,,-99.99,,2013-04-04 21:52:00,
2013-04-04 17:03:00,63.0,31.0,-100.00,NW,310,7.0,17.0,29,0.00,,,-99.99,,2013-04-04 22:03:00,
2013-04-04 17:12:00,64.0,32.0,-100.00,NNW,330,10.0,13.0,30,0.00,,,-99.99,,2013-04-04 22:12:00,
2013-04-04 17:23:00,63.0,31.0,-100.00,NW,315,12.0,15.0,30,0.00,,,-99.99,,2013-04-04 22:23:00,
2013-04-04 17:33:00,63.0,32.0,-100.00,NNW,340,10.0,16.0,31,0.00,,,-99.99,,2013-04-04 22:33:00,
2013-04-04 17:42:00,63.0,32.0,-100.00,NNW,340,10.0,16.0,31,0.00,,,-99.99,,2013-04-04 22:42:00,
2013-04-04 17:52:00,63.0,32.0,-100.00,NNE,15,7.0,14.0,31,0.00,,,-99.99,,2013-04-04 22:52:00,
2013-04-04 18:02:00,63.0,32.0,-100.00,NNE,15,7.0,14.0,31,0.00,,,-99.99,,2013-04-04 23:02:00,
2013-04-04 18:12:00,63.0,33.0,-100.00,North,0,6.0,14.0,32,0.00,,,-99.99,,2013-04-04 23:12:00,
2013-04-04 18:22:00,63.0,34.0,-100.00,North,10,4.0,11.0,32,0.00,,,-99.99,,2013-04-04 23:22:00,
2013-04-04 18:32:00,63.0,33.0,-100.00,North,10,6.0,9.0,33,0.00,,,-99.99,,2013-04-04 23:32:00,
2013-04-04 18:42:00,63.0,33.0,-100.00,North,10,6.0,9.0,33,0.00,,,-99.99,,2013-04-04 23:42:00,
2013-04-04 18:52:00,63.0,33.0,-100.00,NNW,330,6.0,7.0,33,0.00,,,-99.99,,2013-04-04 23:52:00,
2013-04-04 19:02:00,63.0,33.0,-100.00,NNW,330,6.0,7.0,33,0.00,,,-99.99,,2013-04-05 00:02:00,
2013-04-04 19:12:00,62.0,34.0,-100.00,NNW,340,4.0,7.0,34,0.00,,,-99.99,,2013-04-05 00:12:00,
2013-04-04 19:22:00,61.0,35.0,-100.00,NNW,330,4.0,7.0,37,0.00,,,-99.99,,2013-04-05 00:22:00,
2013-04-04 19:32:00,60.0,43.0,-100.00,NNE,20,11.0,17.0,54,0.00,,,-99.99,,2013-04-05 00:32:00,
2013-04-04 19:42:00,60.0,43.0,-100.00,NNE,20,11.0,17.0,54,0.00,,,-99.99,,2013-04-05 00:42:00,
2013-04-04 19:52:00,58.0,43.0,-100.00,NNE,25,7.0,13.0,57,0.00,,,-99.99,,2013-04-05 00:52:00,
2013-04-04 20:02:00,58.0,43.0,-100.00,NNE,25,7.0,13.0,57,0.00,,,-99.99,,2013-04-05 01:02:00,
2013-04-04 20:12:00,57.0,42.0,-100.00,NNE,30,7.0,13.0,57,0.00,,,-99.99,,2013-04-05 01:12:00,
2013-04-04 20:22:00,57.0,43.0,-100.00,North,10,7.0,11.0,58,0.00,,,-99.99,,2013-04-05 01:22:00,
2013-04-04 20:32:00,56.0,42.0,-100.00,North,0,9.0,14.0,58,0.00,,,-99.99,,2013-04-05 01:32:00,
2013-04-04 20:42:00,56.0,42.0,-100.00,North,0,9.0,14.0,58,0.00,,,-99.99,,2013-04-05 01:42:00,
2013-04-04 20:52:00,55.0,42.0,-100.00,North,5,11.0,16.0,61,0.00,,,-99.99,,2013-04-05 01:52:00,
2013-04-04 21:03:00,55.0,42.0,-100.00,North,5,11.0,16.0,61,0.00,,,-99.99,,2013-04-05 02:03:00,
2013-04-04 21:12:00,54.0,42.0,-100.00,NNE,15,9.0,16.0,63,0.00,,,-99.99,,2013-04-05 02:12:00,
2013-04-04 21:22:00,54.0,42.0,-100.00,North,5,9.0,13.0,64,0.00,,,-99.99,,2013-04-05 02:22:00,
2013-04-04 21:32:00,52.0,41.0,-100.00,North,0,4.0,9.0,65,0.00,,,-99.99,,2013-04-05 02:32:00,
2013-04-04 21:42:00,52.0,41.0,-100.00,North,0,4.0,9.0,65,0.00,,,-99.99,,2013-04-05 02:42:00,
2013-04-04 21:52:00,51.0,39.0,-100.00,North,5,4.0,8.0,63,0.00,,,-99.99,,2013-04-05 02:52:00,
2013-04-04 22:02:00,51.0,39.0,-100.00,North,5,4.0,8.0,63,0.00,,,-99.99,,2013-04-05 03:02:00,
2013-04-04 22:12:00,51.0,39.0,-100.00,North,5,6.0,9.0,62,0.00,,,-99.99,,2013-04-05 03:12:00,
2013-04-04 22:22:00,51.0,38.0,-100.00,NNE,15,6.0,9.0,62,0.00,,,-99.99,,2013-04-05 03:22:00,
2013-04-04 22:32:00,48.0,37.0,-100.00,NNW,340,5.0,9.0,65,0.00,,,-99.99,,2013-04-05 03:32:00,
2013-04-04 22:43:00,48.0,37.0,-100.00,NNW,340,5.0,9.0,65,0.00,,,-99.99,,2013-04-05 03:43:00,
2013-04-04 22:53:00,46.0,36.0,-100.00,North,0,4.0,6.0,67,0.00,,,-99.99,,2013-04-05 03:53:00,
2013-04-04 23:02:00,46.0,36.0,-100.00,North,0,4.0,6.0,67,0.00,,,-99.99,,2013-04-05 04:02:00,
2013-04-04 23:12:00,46.0,36.0,-100.00,North,5,4.0,6.0,68,0.00,,,-99.99,,2013-04-05 04:12:00,
2013-04-04 23:22:00,45.0,36.0,-100.00,NNW,340,4.0,6.0,69,0.00,,,-99.99,,2013-04-05 04:22:00,
2013-04-04 23:32:00,45.0,36.0,-100.00,North,350,6.0,8.0,68,0.00,,,-99.99,,2013-04-05 04:32:00,
2013-04-04 23:42:00,45.0,36.0,-100.00,North,350,6.0,8.0,68,0.00,,,-99.99,,2013-04-05 04:42:00,
2013-04-04 23:52:00,45.0,36.0,-100.00,NNW,340,4.0,7.0,69,0.00,,,-99.99,,2013-04-05 04:52:00,